createdAt,value
2022-08-03T00:00:34.740Z,101539.41
2022-08-03T00:02:36.314Z,101546.59
2022-08-03T00:04:37.838Z,101546.66
2022-08-03T00:06:39.420Z,101543.13
2022-08-03T00:08:41.019Z,101536.03
2022-08-03T00:10:42.591Z,101544.25
2022-08-03T00:12:44.207Z,101538.97
2022-08-03T00:14:45.677Z,101536.59
2022-08-03T00:16:47.214Z,101533.41
2022-08-03T00:18:48.693Z,101529.94
2022-08-03T00:20:50.333Z,101524.75
2022-08-03T00:22:52.215Z,101530.28
2022-08-03T00:24:53.689Z,101531.34
2022-08-03T00:26:55.204Z,101529.78
2022-08-03T00:28:56.768Z,101534.25
2022-08-03T00:30:58.330Z,101529.06
2022-08-03T00:33:00.075Z,101536.34
2022-08-03T00:35:08.393Z,101531.22
2022-08-03T00:37:12.076Z,101534.84
2022-08-03T00:39:13.581Z,101527.00
2022-08-03T00:41:15.761Z,101520.84
2022-08-03T00:43:17.504Z,101524.44
2022-08-03T00:45:20.367Z,101527.25
2022-08-03T00:47:21.884Z,101525.69
2022-08-03T00:49:24.327Z,101525.78
2022-08-03T00:51:25.935Z,101534.84
2022-08-03T00:53:28.246Z,101529.59
2022-08-03T00:55:30.569Z,101521.53
2022-08-03T00:57:32.941Z,101521.63
2022-08-03T00:59:34.779Z,101527.84
2022-08-03T01:01:36.619Z,101520.84
2022-08-03T01:03:38.501Z,101519.13
2022-08-03T01:05:52.104Z,101523.59
2022-08-03T01:08:16.945Z,101528.09
2022-08-03T01:10:41.895Z,101522.91
2022-08-03T01:12:52.683Z,101524.81
2022-08-03T01:15:08.941Z,101521.34
2022-08-03T01:17:19.267Z,101522.28
2022-08-03T01:19:59.730Z,101529.47
2022-08-03T01:22:07.125Z,101521.75
2022-08-03T01:24:38.191Z,101526.31
2022-08-03T01:26:52.962Z,101521.06
2022-08-03T01:29:03.448Z,101526.50
2022-08-03T01:31:08.449Z,101515.88
2022-08-03T01:33:17.737Z,101525.78
2022-08-03T01:35:28.164Z,101525.00
2022-08-03T01:37:39.373Z,101526.16
2022-08-03T01:39:42.769Z,101527.34
2022-08-03T01:42:01.121Z,101528.31
2022-08-03T01:44:29.284Z,101528.31
2022-08-03T01:46:28.572Z,101521.28
2022-08-03T01:48:31.183Z,101528.69
2022-08-03T01:50:34.371Z,101518.06
2022-08-03T01:52:39.489Z,101524.38
2022-08-03T01:54:44.198Z,101523.75
2022-08-03T01:56:47.785Z,101522.97
2022-08-03T01:58:50.688Z,101518.47
2022-08-03T02:00:53.473Z,101513.91
2022-08-03T02:02:56.031Z,101522.81
2022-08-03T02:04:58.661Z,101523.81
2022-08-03T02:07:03.454Z,101515.19
2022-08-03T02:09:06.421Z,101508.09
2022-08-03T02:11:08.116Z,101511.72
2022-08-03T02:13:10.717Z,101515.41
2022-08-03T02:15:15.223Z,101514.56
2022-08-03T02:17:17.023Z,101516.34
2022-08-03T02:19:19.531Z,101508.53
2022-08-03T02:21:56.511Z,101509.47
2022-08-03T02:23:45.285Z,101506.00
2022-08-03T02:25:51.057Z,101506.94
2022-08-03T02:27:59.656Z,101507.00
2022-08-03T02:30:07.909Z,101508.19
2022-08-03T02:32:13.774Z,101503.94
2022-08-03T02:34:17.183Z,101496.00
2022-08-03T02:36:26.957Z,101502.22
2022-08-03T02:38:33.202Z,101508.66
2022-08-03T02:40:36.427Z,101500.88
2022-08-03T02:42:40.165Z,101493.78
2022-08-03T02:44:47.797Z,101501.03
2022-08-03T02:46:53.197Z,101499.28
2022-08-03T02:48:56.792Z,101495.69
2022-08-03T02:50:59.988Z,101491.19
2022-08-03T02:53:03.256Z,101494.88
2022-08-03T02:55:07.214Z,101491.44
2022-08-03T02:57:11.269Z,101491.59
2022-08-03T02:59:14.413Z,101487.34
2022-08-03T03:01:19.194Z,101498.97
2022-08-03T03:03:22.293Z,101498.19
2022-08-03T03:05:52.448Z,101500.84
2022-08-03T03:07:52.165Z,101489.34
2022-08-03T03:09:55.102Z,101498.38
2022-08-03T03:11:57.574Z,101505.59
2022-08-03T03:14:00.317Z,101498.59
2022-08-03T03:16:04.821Z,101497.81
2022-08-03T03:18:07.676Z,101505.91
2022-08-03T03:20:09.705Z,101501.44
2022-08-03T03:22:12.612Z,101503.31
2022-08-03T03:24:16.352Z,101501.66
2022-08-03T03:26:18.579Z,101504.47
2022-08-03T03:28:20.792Z,101508.00
2022-08-03T03:30:22.612Z,101499.22
2022-08-03T03:32:24.311Z,101506.34
2022-08-03T03:34:26.533Z,101508.16
2022-08-03T03:36:30.294Z,101506.44
2022-08-03T03:38:32.737Z,101503.84
2022-08-03T03:40:38.390Z,101506.59
2022-08-03T03:42:40.533Z,101502.31
2022-08-03T03:44:42.145Z,101501.53
2022-08-03T03:46:43.800Z,101497.13
2022-08-03T03:48:45.550Z,101494.53
2022-08-03T03:50:50.267Z,101496.50
2022-08-03T03:52:51.828Z,101501.03
2022-08-03T03:55:05.582Z,101500.09
2022-08-03T03:57:07.118Z,101500.09
2022-08-03T03:59:08.610Z,101501.75
2022-08-03T04:01:10.245Z,101499.16
2022-08-03T04:03:12.332Z,101497.50
2022-08-03T04:05:32.852Z,101494.91
2022-08-03T04:08:09.155Z,101494.03
2022-08-03T04:10:39.875Z,101487.69
2022-08-03T04:12:50.178Z,101489.41
2022-08-03T04:14:56.793Z,101491.94
2022-08-03T04:17:02.173Z,101485.50
2022-08-03T04:19:16.581Z,101484.34
2022-08-03T04:21:23.566Z,101493.06
2022-08-03T04:23:27.972Z,101491.97
2022-08-03T04:25:32.795Z,101494.44
2022-08-03T04:27:40.570Z,101495.00
2022-08-03T04:29:48.265Z,101494.03
2022-08-03T04:31:51.839Z,101491.22
2022-08-03T04:33:54.878Z,101507.06
2022-08-03T04:36:01.614Z,101503.22
2022-08-03T04:38:07.845Z,101493.16
2022-08-03T04:40:14.838Z,101497.97
2022-08-03T04:42:18.614Z,101495.59
2022-08-03T04:44:23.565Z,101501.41
2022-08-03T04:46:34.573Z,101504.41
2022-08-03T04:48:36.439Z,101500.28
2022-08-03T04:50:38.171Z,101490.66
2022-08-03T04:52:39.942Z,101494.53
2022-08-03T04:54:50.209Z,101495.94
2022-08-03T04:56:52.861Z,101497.25
2022-08-03T04:58:54.419Z,101495.97
2022-08-03T05:00:55.909Z,101495.63
2022-08-03T05:02:57.543Z,101495.28
2022-08-03T05:04:59.560Z,101493.91
2022-08-03T05:07:01.102Z,101499.53
2022-08-03T05:09:14.142Z,101499.97
2022-08-03T05:11:16.822Z,101498.66
2022-08-03T05:13:18.330Z,101508.94
2022-08-03T05:15:19.893Z,101509.50
2022-08-03T05:17:21.417Z,101510.97
2022-08-03T05:19:22.895Z,101507.06
2022-08-03T05:21:24.470Z,101506.53
2022-08-03T05:23:25.964Z,101506.09
2022-08-03T05:25:27.905Z,101506.59
2022-08-03T05:27:29.473Z,101505.47
2022-08-03T05:29:32.232Z,101506.88
2022-08-03T05:31:33.868Z,101504.97
2022-08-03T05:33:35.392Z,101507.47
2022-08-03T05:35:56.213Z,101511.03
2022-08-03T05:38:01.230Z,101511.72
2022-08-03T05:40:04.397Z,101514.13
2022-08-03T05:42:05.947Z,101517.47
2022-08-03T05:44:07.467Z,101523.44
2022-08-03T05:46:13.041Z,101522.28
2022-08-03T05:48:14.825Z,101517.59
2022-08-03T05:50:17.688Z,101518.19
2022-08-03T05:52:19.184Z,101521.50
2022-08-03T05:54:20.836Z,101516.72
2022-08-03T05:56:24.919Z,101516.44
2022-08-03T05:58:26.468Z,101517.03
2022-08-03T06:00:31.559Z,101514.06
2022-08-03T06:02:33.098Z,101527.19
2022-08-03T06:04:34.632Z,101516.94
2022-08-03T06:06:36.209Z,101512.03
2022-08-03T06:08:38.223Z,101519.84
2022-08-03T06:10:39.865Z,101517.50
2022-08-03T06:12:41.446Z,101514.22
2022-08-03T06:14:42.936Z,101513.94
2022-08-03T06:16:44.438Z,101517.28
2022-08-03T06:18:46.303Z,101523.03
2022-08-03T06:20:49.441Z,101515.53
2022-08-03T06:23:01.266Z,101519.59
2022-08-03T06:25:04.947Z,101513.63
2022-08-03T06:27:08.979Z,101522.16
2022-08-03T06:29:10.609Z,101521.84
2022-08-03T06:31:12.314Z,101513.28
2022-08-03T06:33:13.951Z,101516.25
2022-08-03T06:35:16.306Z,101522.03
2022-08-03T06:37:18.530Z,101529.91
2022-08-03T06:39:23.433Z,101525.94
2022-08-03T06:41:26.286Z,101526.38
2022-08-03T06:43:27.783Z,101522.22
2022-08-03T06:45:31.738Z,101522.66
2022-08-03T06:47:33.769Z,101519.38
2022-08-03T06:49:35.399Z,101525.00
2022-08-03T06:52:03.249Z,101530.84
2022-08-03T06:53:58.423Z,101529.38
2022-08-03T06:56:00.158Z,101538.53
2022-08-03T06:58:03.471Z,101539.06
2022-08-03T07:00:11.903Z,101541.50
2022-08-03T07:02:19.043Z,101541.91
2022-08-03T07:04:21.088Z,101537.06
2022-08-03T07:06:22.629Z,101536.53
2022-08-03T07:08:33.413Z,101538.69
2022-08-03T07:10:36.270Z,101537.94
2022-08-03T07:12:38.825Z,101533.00
2022-08-03T07:15:01.281Z,101533.63
2022-08-03T07:17:04.712Z,101534.28
2022-08-03T07:19:13.396Z,101534.72
2022-08-03T07:21:16.647Z,101536.75
2022-08-03T07:23:19.306Z,101532.13
2022-08-03T07:25:21.483Z,101531.78
2022-08-03T07:27:23.083Z,101535.00
2022-08-03T07:29:25.046Z,101540.84
2022-08-03T07:31:26.615Z,101542.00
2022-08-03T07:33:28.220Z,101544.25
2022-08-03T07:35:29.733Z,101544.19
2022-08-03T07:37:31.512Z,101543.50
2022-08-03T07:39:33.041Z,101547.44
2022-08-03T07:41:34.615Z,101553.47
2022-08-03T07:43:36.126Z,101551.09
2022-08-03T07:45:37.721Z,101549.25
2022-08-03T07:47:39.219Z,101552.38
2022-08-03T07:49:41.553Z,101551.28
2022-08-03T07:51:43.218Z,101554.59
2022-08-03T07:53:47.181Z,101561.59
2022-08-03T07:55:49.497Z,101551.66
2022-08-03T07:58:09.769Z,101559.03
2022-08-03T08:00:18.431Z,101557.31
2022-08-03T08:02:19.972Z,101556.09
2022-08-03T08:04:21.498Z,101546.31
2022-08-03T08:06:22.999Z,101557.75
2022-08-03T08:08:24.550Z,101560.94
2022-08-03T08:10:26.249Z,101552.41
2022-08-03T08:12:27.819Z,101557.00
2022-08-03T08:14:29.842Z,101550.25
2022-08-03T08:16:31.430Z,101555.66
2022-08-03T08:18:33.036Z,101562.91
2022-08-03T08:20:37.959Z,101557.03
2022-08-03T08:22:39.751Z,101552.03
2022-08-03T08:26:46.107Z,101550.00
2022-08-03T08:28:47.977Z,101544.34
2022-08-03T08:30:49.984Z,101553.94
2022-08-03T08:32:51.776Z,101547.06
2022-08-03T08:34:54.113Z,101545.59
2022-08-03T08:36:55.651Z,101539.59
2022-08-03T08:38:57.205Z,101546.84
2022-08-03T08:40:58.789Z,101541.06
2022-08-03T08:43:00.324Z,101545.50
2022-08-03T08:45:02.297Z,101545.28
2022-08-03T08:47:04.545Z,101547.50
2022-08-03T08:49:08.987Z,101542.81
2022-08-03T08:51:12.551Z,101546.00
2022-08-03T08:53:17.646Z,101548.59
2022-08-03T08:55:23.576Z,101543.78
2022-08-03T08:57:44.698Z,101548.22
2022-08-03T08:59:47.845Z,101543.28
2022-08-03T09:01:50.639Z,101553.63
2022-08-03T09:03:54.114Z,101551.28
2022-08-03T09:05:56.588Z,101558.03
2022-08-03T09:07:58.611Z,101547.56
2022-08-03T09:10:11.971Z,101554.31
2022-08-03T09:12:40.594Z,101546.81
2022-08-03T09:14:45.397Z,101549.25
2022-08-03T09:17:04.512Z,101547.69
2022-08-03T09:19:14.171Z,101541.63
2022-08-03T09:21:34.865Z,101540.28
2022-08-03T09:24:02.195Z,101539.22
2022-08-03T09:26:04.533Z,101545.00
2022-08-03T09:28:11.615Z,101538.78
2022-08-03T09:30:19.085Z,101539.25
2022-08-03T09:32:37.217Z,101537.00
2022-08-03T09:34:39.115Z,101540.06
2022-08-03T09:36:46.442Z,101541.53
2022-08-03T09:39:04.459Z,101538.44
2022-08-03T09:41:18.319Z,101539.22
2022-08-03T09:43:20.740Z,101535.13
2022-08-03T09:45:28.405Z,101542.28
2022-08-03T09:47:37.856Z,101537.31
2022-08-03T09:50:01.325Z,101541.31
2022-08-03T09:52:31.643Z,101540.22
2022-08-03T09:54:35.635Z,101530.97
2022-08-03T09:56:44.810Z,101534.13
2022-08-03T09:58:47.652Z,101524.72
2022-08-03T10:01:06.243Z,101517.34
2022-08-03T10:03:08.028Z,101522.13
2022-08-03T10:05:19.797Z,101530.25
2022-08-03T10:07:23.730Z,101518.53
2022-08-03T10:09:25.229Z,101519.00
2022-08-03T10:11:40.375Z,101514.28
2022-08-03T10:13:43.201Z,101518.28
2022-08-03T10:16:22.593Z,101522.75
2022-08-03T10:18:08.051Z,101521.22
2022-08-03T10:20:10.078Z,101520.66
2022-08-03T10:22:18.912Z,101517.53
2022-08-03T10:24:26.109Z,101519.25
2022-08-03T10:26:32.025Z,101516.81
2022-08-03T10:28:45.313Z,101523.84
2022-08-03T10:30:52.825Z,101529.91
2022-08-03T10:33:05.154Z,101518.19
2022-08-03T10:35:27.240Z,101513.91
2022-08-03T10:37:32.239Z,101515.38
2022-08-03T10:39:34.352Z,101513.50
2022-08-03T10:41:39.817Z,101509.63
2022-08-03T10:43:59.156Z,101516.19
2022-08-03T10:46:02.419Z,101517.53
2022-08-03T10:48:05.417Z,101511.47
2022-08-03T10:50:08.214Z,101512.56
2022-08-03T10:52:13.631Z,101513.06
2022-08-03T10:54:37.197Z,101506.53
2022-08-03T10:56:57.780Z,101519.16
2022-08-03T10:58:59.961Z,101516.34
2022-08-03T11:01:07.678Z,101514.13
2022-08-03T11:03:16.485Z,101507.56
2022-08-03T11:05:28.646Z,101506.97
2022-08-03T11:07:30.212Z,101499.16
2022-08-03T11:09:42.636Z,101506.28
2022-08-03T11:11:48.782Z,101509.06
2022-08-03T11:14:20.969Z,101507.78
2022-08-03T11:16:23.672Z,101500.97
2022-08-03T11:18:26.836Z,101498.00
2022-08-03T11:20:51.391Z,101500.06
2022-08-03T11:22:54.533Z,101502.97
2022-08-03T11:24:57.317Z,101496.09
2022-08-03T11:27:19.099Z,101499.13
2022-08-03T11:29:30.862Z,101499.91
2022-08-03T11:31:49.247Z,101499.13
2022-08-03T11:34:10.049Z,101489.94
2022-08-03T11:36:11.575Z,101488.94
2022-08-03T11:38:13.330Z,101486.66
2022-08-03T11:40:35.962Z,101493.66
2022-08-03T11:42:37.831Z,101492.06
2022-08-03T11:44:39.977Z,101483.47
2022-08-03T11:46:41.677Z,101479.59
2022-08-03T11:48:51.054Z,101474.69
2022-08-03T11:50:52.626Z,101479.09
2022-08-03T11:52:54.236Z,101484.50
2022-08-03T11:54:56.922Z,101479.31
2022-08-03T11:56:58.872Z,101484.84
2022-08-03T11:59:17.871Z,101483.97
2022-08-03T12:01:23.252Z,101484.34
2022-08-03T12:03:24.916Z,101479.28
2022-08-03T12:05:41.947Z,101489.19
2022-08-03T12:08:03.255Z,101484.53
2022-08-03T12:10:13.363Z,101482.13
2022-08-03T12:12:16.334Z,101493.50
2022-08-03T12:14:50.423Z,101478.28
2022-08-03T12:16:41.029Z,101475.13
2022-08-03T12:18:42.640Z,101480.72
2022-08-03T12:20:45.473Z,101484.22
2022-08-03T12:22:46.969Z,101483.59
2022-08-03T12:24:48.475Z,101478.53
2022-08-03T12:26:52.184Z,101480.72
2022-08-03T12:29:01.101Z,101467.47
2022-08-03T12:31:07.771Z,101466.47
2022-08-03T12:33:28.267Z,101462.19
2022-08-03T12:35:29.884Z,101471.75
2022-08-03T12:37:32.065Z,101471.97
2022-08-03T12:39:33.890Z,101471.97
2022-08-03T12:41:40.790Z,101478.16
2022-08-03T12:43:49.655Z,101467.25
2022-08-03T12:45:51.259Z,101469.66
2022-08-03T12:47:58.796Z,101468.28
2022-08-03T12:50:00.288Z,101468.34
2022-08-03T12:52:07.016Z,101465.72
2022-08-03T12:54:16.018Z,101460.56
2022-08-03T12:56:19.931Z,101462.34
2022-08-03T12:58:35.878Z,101457.16
2022-08-03T13:00:37.482Z,101463.28
2022-08-03T13:02:39.283Z,101457.22
2022-08-03T13:04:49.935Z,101452.16
2022-08-03T13:07:03.470Z,101456.09
2022-08-03T13:09:06.946Z,101457.38
2022-08-03T13:11:53.648Z,101455.94
2022-08-03T13:13:48.691Z,101459.34
2022-08-03T13:15:50.263Z,101457.59
2022-08-03T13:17:51.783Z,101457.38
2022-08-03T13:19:54.144Z,101452.31
2022-08-03T13:22:04.403Z,101454.00
2022-08-03T13:24:06.660Z,101459.16
2022-08-03T13:26:08.748Z,101457.50
2022-08-03T13:28:14.144Z,101452.13
2022-08-03T13:30:24.181Z,101456.72
2022-08-03T13:32:33.168Z,101450.41
2022-08-03T13:34:34.784Z,101460.13
2022-08-03T13:37:07.452Z,101457.56
2022-08-03T13:39:00.662Z,101451.81
2022-08-03T13:41:04.813Z,101450.78
2022-08-03T13:43:06.764Z,101447.72
2022-08-03T13:45:09.695Z,101435.16
2022-08-03T13:47:11.258Z,101443.88
2022-08-03T13:49:13.218Z,101442.38
2022-08-03T13:51:22.506Z,101443.56
2022-08-03T13:53:24.459Z,101432.63
2022-08-03T13:55:25.964Z,101439.47
2022-08-03T13:58:11.638Z,101438.31
2022-08-03T13:59:50.760Z,101443.13
2022-08-03T14:01:55.681Z,101434.94
2022-08-03T14:03:58.340Z,101439.38
2022-08-03T14:05:59.840Z,101432.06
2022-08-03T14:08:04.799Z,101427.56
2022-08-03T14:10:07.074Z,101426.00
2022-08-03T14:12:09.070Z,101426.84
2022-08-03T14:14:11.043Z,101422.75
2022-08-03T14:16:12.566Z,101426.84
2022-08-03T14:18:27.734Z,101426.16
2022-08-03T14:20:37.786Z,101420.38
2022-08-03T14:22:49.208Z,101418.91
2022-08-03T14:24:50.709Z,101418.75
2022-08-03T14:26:53.094Z,101419.03
2022-08-03T14:28:54.680Z,101417.03
2022-08-03T14:30:56.357Z,101418.06
2022-08-03T14:33:00.727Z,101418.19
2022-08-03T14:35:02.518Z,101418.91
2022-08-03T14:37:04.074Z,101411.88
2022-08-03T14:39:05.612Z,101409.00
2022-08-03T14:41:07.248Z,101407.38
2022-08-03T14:43:21.495Z,101409.00
2022-08-03T14:45:23.265Z,101410.97
2022-08-03T14:47:24.897Z,101409.41
2022-08-03T14:50:36.250Z,101408.50
2022-08-03T14:51:51.394Z,101409.84
2022-08-03T14:53:55.682Z,101415.13
2022-08-03T14:55:57.447Z,101409.88
2022-08-03T14:58:00.032Z,101408.59
2022-08-03T15:00:01.754Z,101397.34
2022-08-03T15:02:07.057Z,101398.91
2022-08-03T15:04:11.709Z,101388.13
2022-08-03T15:06:13.264Z,101398.13
2022-08-03T15:08:14.861Z,101390.09
2022-08-03T15:10:16.473Z,101400.88
2022-08-03T15:12:17.991Z,101390.03
2022-08-03T15:14:19.498Z,101390.38
2022-08-03T15:16:30.085Z,101393.28
2022-08-03T15:18:32.149Z,101395.16
2022-08-03T15:20:43.989Z,101396.16
2022-08-03T15:22:46.261Z,101394.28
2022-08-03T15:24:47.850Z,101392.25
2022-08-03T15:26:50.631Z,101394.81
2022-08-03T15:28:52.107Z,101390.63
2022-08-03T15:30:53.791Z,101391.31
2022-08-03T15:32:55.265Z,101385.84
2022-08-03T15:34:56.831Z,101389.59
2022-08-03T15:36:58.390Z,101388.91
2022-08-03T15:39:01.333Z,101390.53
2022-08-03T15:41:03.038Z,101390.53
2022-08-03T15:43:04.593Z,101385.25
2022-08-03T15:45:06.652Z,101388.69
2022-08-03T15:47:08.256Z,101385.25
2022-08-03T15:49:12.526Z,101382.84
2022-08-03T15:51:14.245Z,101381.84
2022-08-03T15:53:15.750Z,101383.88
2022-08-03T15:55:17.258Z,101379.28
2022-08-03T15:57:19.212Z,101384.56
2022-08-03T15:59:20.885Z,101377.25
2022-08-03T16:01:22.597Z,101377.41
2022-08-03T16:03:25.140Z,101373.13
2022-08-03T16:05:26.731Z,101375.16
2022-08-03T16:08:03.814Z,101376.19
2022-08-03T16:10:05.571Z,101372.41
2022-08-03T16:12:15.417Z,101367.97
2022-08-03T16:14:32.061Z,101374.44
2022-08-03T16:16:40.419Z,101371.88
2022-08-03T16:18:42.616Z,101370.69
2022-08-03T16:20:45.180Z,101378.22
2022-08-03T16:22:48.481Z,101368.38
2022-08-03T16:24:51.035Z,101369.75
2022-08-03T16:26:52.625Z,101372.53
2022-08-03T16:28:54.193Z,101373.41
2022-08-03T16:30:55.717Z,101376.81
2022-08-03T16:32:57.240Z,101368.97
2022-08-03T16:34:58.914Z,101373.53
2022-08-03T16:37:11.743Z,101369.41
2022-08-03T16:39:21.995Z,101372.09
2022-08-03T16:41:23.541Z,101369.72
2022-08-03T16:43:25.246Z,101365.41
2022-08-03T16:45:26.861Z,101370.97
2022-08-03T16:47:28.420Z,101365.53
2022-08-03T16:49:55.210Z,101364.50
2022-08-03T16:51:51.487Z,101357.63
2022-08-03T16:54:07.251Z,101363.09
2022-08-03T16:56:10.683Z,101368.69
2022-08-03T16:58:12.688Z,101365.81
2022-08-03T17:00:33.661Z,101360.94
2022-08-03T17:02:36.710Z,101363.00
2022-08-03T17:04:40.352Z,101365.41
2022-08-03T17:06:44.624Z,101361.81
2022-08-03T17:08:55.312Z,101359.91
2022-08-03T17:10:57.085Z,101358.97
2022-08-03T17:12:58.677Z,101367.47
2022-08-03T17:15:00.150Z,101365.06
2022-08-03T17:17:06.082Z,101360.47
2022-08-03T17:19:09.475Z,101366.47
2022-08-03T17:21:15.151Z,101368.88
2022-08-03T17:23:45.604Z,101364.28
2022-08-03T17:26:01.514Z,101356.75
2022-08-03T17:28:48.252Z,101363.28
2022-08-03T17:30:47.516Z,101367.47
2022-08-03T17:32:57.045Z,101366.84
2022-08-03T17:35:00.018Z,101367.69
2022-08-03T17:37:04.434Z,101371.28
2022-08-03T17:39:06.644Z,101363.25
2022-08-03T17:41:10.907Z,101367.00
2022-08-03T17:44:13.773Z,101364.44
2022-08-03T17:45:52.330Z,101367.00
2022-08-03T17:47:57.446Z,101368.69
2022-08-03T17:49:59.623Z,101371.91
2022-08-03T17:52:06.611Z,101368.31
2022-08-03T17:54:23.909Z,101380.06
2022-08-03T17:56:46.048Z,101372.22
2022-08-03T17:59:08.524Z,101376.81
2022-08-03T18:01:58.269Z,101375.97
2022-08-03T18:04:02.689Z,101385.31
2022-08-03T18:06:12.846Z,101383.75
2022-08-03T18:08:24.890Z,101379.63
2022-08-03T18:10:33.642Z,101379.94
2022-08-03T18:12:51.828Z,101386.03
2022-08-03T18:15:07.778Z,101377.28
2022-08-03T18:17:15.701Z,101385.75
2022-08-03T18:19:19.265Z,101387.25
2022-08-03T18:21:24.029Z,101391.41
2022-08-03T18:23:36.909Z,101384.72
2022-08-03T18:25:50.046Z,101391.63
2022-08-03T18:27:56.257Z,101390.00
2022-08-03T18:30:01.723Z,101390.47
2022-08-03T18:32:12.931Z,101389.91
2022-08-03T18:34:33.208Z,101396.97
2022-08-03T18:36:37.550Z,101391.09
2022-08-03T18:38:41.963Z,101390.75
2022-08-03T18:40:48.650Z,101388.81
2022-08-03T18:42:52.809Z,101390.41
2022-08-03T18:44:57.099Z,101393.06
2022-08-03T18:47:04.475Z,101402.25
2022-08-03T18:49:16.545Z,101406.69
2022-08-03T18:51:28.841Z,101418.25
2022-08-03T18:54:02.603Z,101416.63
2022-08-03T18:56:14.745Z,101420.66
2022-08-03T18:58:27.685Z,101422.22
2022-08-03T19:00:54.250Z,101427.31
2022-08-03T19:03:01.790Z,101435.00
2022-08-03T19:05:07.820Z,101439.28
2022-08-03T19:07:11.157Z,101451.91
2022-08-03T19:09:27.959Z,101449.72
2022-08-03T19:12:14.249Z,101452.94
2022-08-03T19:14:08.633Z,101460.84
2022-08-03T19:16:27.390Z,101465.97
2022-08-03T19:18:31.285Z,101463.91
2022-08-03T19:20:32.899Z,101463.75
2022-08-03T19:22:35.745Z,101467.09
2022-08-03T19:24:39.934Z,101472.97
2022-08-03T19:26:41.456Z,101471.72
2022-08-03T19:28:43.200Z,101472.59
2022-08-03T19:30:46.457Z,101467.06
2022-08-03T19:32:55.230Z,101471.00
2022-08-03T19:34:59.651Z,101474.63
2022-08-03T19:37:02.527Z,101476.38
2022-08-03T19:39:09.091Z,101480.31
2022-08-03T19:41:15.354Z,101474.44
2022-08-03T19:43:53.097Z,101468.22
2022-08-03T19:46:05.797Z,101476.56
2022-08-03T19:48:12.701Z,101482.78
2022-08-03T19:50:15.512Z,101484.94
2022-08-03T19:52:20.729Z,101481.34
2022-08-03T19:54:52.829Z,101490.22
2022-08-03T19:56:56.510Z,101493.22
2022-08-03T19:58:59.315Z,101497.59
2022-08-03T20:01:01.278Z,101500.47
2022-08-03T20:03:24.811Z,101497.47
2022-08-03T20:05:27.336Z,101500.75
2022-08-03T20:07:33.499Z,101500.31
2022-08-03T20:09:35.641Z,101500.31
2022-08-03T20:11:44.950Z,101508.97
2022-08-03T20:13:49.797Z,101501.81
2022-08-03T20:15:53.407Z,101495.16
2022-08-03T20:17:58.651Z,101503.56
2022-08-03T20:20:00.754Z,101507.00
2022-08-03T20:22:02.326Z,101515.22
2022-08-03T20:24:24.230Z,101512.50
2022-08-03T20:26:30.224Z,101513.88
2022-08-03T20:28:50.655Z,101512.81
2022-08-03T20:30:53.114Z,101513.88
2022-08-03T20:32:54.652Z,101515.41
2022-08-03T20:34:56.773Z,101513.69
2022-08-03T20:37:00.180Z,101516.91
2022-08-03T20:39:02.145Z,101521.03
2022-08-03T20:41:09.605Z,101528.56
2022-08-03T20:43:11.408Z,101521.34
2022-08-03T20:45:59.683Z,101519.28
2022-08-03T20:47:50.303Z,101513.47
2022-08-03T20:49:53.001Z,101515.84
2022-08-03T20:51:55.373Z,101526.50
2022-08-03T20:54:00.678Z,101516.50
2022-08-03T20:56:03.052Z,101523.72
2022-08-03T20:58:04.676Z,101516.72
2022-08-03T21:00:13.928Z,101518.66
2022-08-03T21:02:19.547Z,101512.50
2022-08-03T21:04:30.950Z,101526.94
2022-08-03T21:06:37.613Z,101525.44
2022-08-03T21:08:47.012Z,101521.13
2022-08-03T21:10:51.661Z,101520.47
2022-08-03T21:13:14.902Z,101517.03
2022-08-03T21:16:06.823Z,101522.53
2022-08-03T21:17:54.485Z,101513.97
2022-08-03T21:19:57.282Z,101521.31
2022-08-03T21:21:59.886Z,101528.84
2022-08-03T21:24:03.629Z,101525.59
2022-08-03T21:26:05.652Z,101523.03
2022-08-03T21:28:07.829Z,101520.44
2022-08-03T21:30:10.997Z,101517.91
2022-08-03T21:32:19.349Z,101510.16
2022-08-03T21:34:37.325Z,101516.81
2022-08-03T21:36:38.897Z,101517.03
2022-08-03T21:38:40.903Z,101510.91
2022-08-03T21:40:42.574Z,101513.91
2022-08-03T21:42:45.515Z,101515.94
2022-08-03T21:44:47.038Z,101514.38
2022-08-03T21:46:53.094Z,101521.91
2022-08-03T21:50:07.692Z,101513.09
2022-08-03T21:51:25.312Z,101520.41
2022-08-03T21:54:02.525Z,101519.75
2022-08-03T21:56:05.878Z,101524.47
2022-08-03T21:58:08.837Z,101514.97
2022-08-03T22:00:17.335Z,101512.59
2022-08-03T22:02:23.972Z,101516.34
2022-08-03T22:04:50.241Z,101513.00
2022-08-03T22:06:48.542Z,101509.66
2022-08-03T22:08:52.702Z,101505.41
2022-08-03T22:10:54.336Z,101504.66
2022-08-03T22:12:55.892Z,101497.53
2022-08-03T22:15:01.993Z,101503.88
2022-08-03T22:17:06.466Z,101494.00
2022-08-03T22:19:08.853Z,101496.56
2022-08-03T22:21:13.974Z,101499.84
2022-08-03T22:23:21.174Z,101507.81
2022-08-03T22:25:30.530Z,101506.75
2022-08-03T22:27:34.988Z,101506.75
2022-08-03T22:29:39.814Z,101501.28
2022-08-03T22:31:58.732Z,101505.69
2022-08-03T22:34:01.124Z,101505.69
2022-08-03T22:36:04.689Z,101496.66
2022-08-03T22:38:08.498Z,101501.28
2022-08-03T22:40:14.924Z,101498.78
2022-08-03T22:42:19.067Z,101497.94
2022-08-03T22:44:21.825Z,101501.69
2022-08-03T22:46:25.888Z,101494.75
2022-08-03T22:48:27.788Z,101497.66
2022-08-03T22:50:31.376Z,101498.59
2022-08-03T22:52:36.870Z,101498.59
2022-08-03T22:54:38.957Z,101495.16
2022-08-03T22:56:41.373Z,101497.91
2022-08-03T22:58:42.921Z,101498.13
2022-08-03T23:00:57.617Z,101502.53
2022-08-03T23:03:02.090Z,101500.91
2022-08-03T23:05:16.431Z,101492.06
2022-08-03T23:07:33.430Z,101495.72
2022-08-03T23:09:35.362Z,101492.28
2022-08-03T23:11:46.118Z,101491.31
2022-08-03T23:13:52.197Z,101494.22
2022-08-03T23:16:00.402Z,101494.41
2022-08-03T23:18:03.886Z,101497.28
2022-08-03T23:20:08.249Z,101485.00
2022-08-03T23:22:28.613Z,101487.91
2022-08-03T23:24:39.032Z,101489.72
2022-08-03T23:26:41.301Z,101494.34
2022-08-03T23:28:46.726Z,101494.44
2022-08-03T23:30:51.024Z,101491.84
2022-08-03T23:32:54.806Z,101487.53
2022-08-03T23:35:17.840Z,101482.34
2022-08-03T23:37:20.293Z,101478.03
2022-08-03T23:39:22.627Z,101486.19
2022-08-03T23:41:24.425Z,101483.69
2022-08-03T23:43:45.293Z,101478.41
2022-08-03T23:45:49.572Z,101479.47
2022-08-03T23:47:51.252Z,101478.81
2022-08-03T23:49:53.542Z,101479.88
2022-08-03T23:52:08.386Z,101479.28
2022-08-03T23:54:38.107Z,101476.03
2022-08-03T23:56:52.153Z,101472.69
2022-08-03T23:59:34.134Z,101476.53
